sensor_id;sensor_type;location;lat;lon;timestamp;P1;durP1;ratioP1;P2;durP2;ratioP2
50393;SDS011;36308;46.312;25.288;2023-06-10T00:01:24;8.43;;;4.93;;
50393;SDS011;36308;46.312;25.288;2023-06-10T00:03:50;6.88;;;4.78;;
50393;SDS011;36308;46.312;25.288;2023-06-10T00:06:17;7.57;;;5.00;;
50393;SDS011;36308;46.312;25.288;2023-06-10T00:08:43;7.90;;;5.50;;
50393;SDS011;36308;46.312;25.288;2023-06-10T00:11:08;7.53;;;4.95;;
50393;SDS011;36308;46.312;25.288;2023-06-10T00:13:34;9.32;;;5.30;;
50393;SDS011;36308;46.312;25.288;2023-06-10T00:16:00;6.38;;;4.57;;
50393;SDS011;36308;46.312;25.288;2023-06-10T00:18:26;6.07;;;4.88;;
50393;SDS011;36308;46.312;25.288;2023-06-10T00:20:52;7.57;;;4.90;;
50393;SDS011;36308;46.312;25.288;2023-06-10T00:23:20;10.63;;;4.82;;
50393;SDS011;36308;46.312;25.288;2023-06-10T00:25:46;9.18;;;5.20;;
50393;SDS011;36308;46.312;25.288;2023-06-10T00:28:11;9.82;;;5.15;;
50393;SDS011;36308;46.312;25.288;2023-06-10T00:30:38;8.93;;;5.88;;
50393;SDS011;36308;46.312;25.288;2023-06-10T00:33:04;7.97;;;5.43;;
50393;SDS011;36308;46.312;25.288;2023-06-10T00:35:30;6.47;;;5.07;;
50393;SDS011;36308;46.312;25.288;2023-06-10T00:37:55;10.00;;;5.90;;
50393;SDS011;36308;46.312;25.288;2023-06-10T00:40:21;8.55;;;5.47;;
50393;SDS011;36308;46.312;25.288;2023-06-10T00:42:46;7.80;;;5.50;;
50393;SDS011;36308;46.312;25.288;2023-06-10T00:45:12;8.88;;;5.22;;
50393;SDS011;36308;46.312;25.288;2023-06-10T00:47:37;9.45;;;5.60;;
50393;SDS011;36308;46.312;25.288;2023-06-10T00:50:03;8.40;;;5.60;;
50393;SDS011;36308;46.312;25.288;2023-06-10T00:52:30;8.23;;;5.63;;
50393;SDS011;36308;46.312;25.288;2023-06-10T00:54:56;8.50;;;5.60;;
50393;SDS011;36308;46.312;25.288;2023-06-10T00:57:22;7.65;;;5.00;;
50393;SDS011;36308;46.312;25.288;2023-06-10T00:59:48;7.53;;;5.30;;
50393;SDS011;36308;46.312;25.288;2023-06-10T01:02:15;6.88;;;5.13;;
50393;SDS011;36308;46.312;25.288;2023-06-10T01:04:41;7.95;;;5.75;;
50393;SDS011;36308;46.312;25.288;2023-06-10T01:09:42;8.90;;;6.10;;
50393;SDS011;36308;46.312;25.288;2023-06-10T01:17:57;7.53;;;5.68;;
50393;SDS011;36308;46.312;25.288;2023-06-10T01:20:27;7.95;;;5.82;;
50393;SDS011;36308;46.312;25.288;2023-06-10T01:22:54;7.45;;;5.35;;
50393;SDS011;36308;46.312;25.288;2023-06-10T01:25:20;9.07;;;5.88;;
50393;SDS011;36308;46.312;25.288;2023-06-10T01:27:53;8.97;;;6.10;;
50393;SDS011;36308;46.312;25.288;2023-06-10T01:30:26;6.60;;;5.15;;
50393;SDS011;36308;46.312;25.288;2023-06-10T01:32:55;12.93;;;6.60;;
50393;SDS011;36308;46.312;25.288;2023-06-10T01:35:25;8.05;;;5.93;;
50393;SDS011;36308;46.312;25.288;2023-06-10T01:37:54;10.43;;;6.15;;
50393;SDS011;36308;46.312;25.288;2023-06-10T01:40:23;9.82;;;6.00;;
50393;SDS011;36308;46.312;25.288;2023-06-10T01:42:49;7.80;;;5.50;;
50393;SDS011;36308;46.312;25.288;2023-06-10T01:45:14;7.20;;;5.72;;
50393;SDS011;36308;46.312;25.288;2023-06-10T01:47:40;10.07;;;6.63;;
50393;SDS011;36308;46.312;25.288;2023-06-10T01:50:06;9.88;;;5.93;;
50393;SDS011;36308;46.312;25.288;2023-06-10T01:52:32;7.53;;;5.30;;
50393;SDS011;36308;46.312;25.288;2023-06-10T01:54:58;7.93;;;6.20;;
50393;SDS011;36308;46.312;25.288;2023-06-10T01:57:23;8.50;;;5.68;;
50393;SDS011;36308;46.312;25.288;2023-06-10T01:59:49;7.07;;;5.65;;
50393;SDS011;36308;46.312;25.288;2023-06-10T02:02:15;9.30;;;5.50;;
50393;SDS011;36308;46.312;25.288;2023-06-10T02:04:40;9.98;;;5.70;;
50393;SDS011;36308;46.312;25.288;2023-06-10T02:07:06;10.27;;;5.63;;
50393;SDS011;36308;46.312;25.288;2023-06-10T02:09:31;8.38;;;5.53;;
50393;SDS011;36308;46.312;25.288;2023-06-10T02:11:59;9.45;;;5.70;;
50393;SDS011;36308;46.312;25.288;2023-06-10T02:14:25;7.35;;;5.70;;
50393;SDS011;36308;46.312;25.288;2023-06-10T02:16:51;9.88;;;6.07;;
50393;SDS011;36308;46.312;25.288;2023-06-10T02:19:16;9.85;;;5.82;;
50393;SDS011;36308;46.312;25.288;2023-06-10T02:21:42;11.10;;;5.68;;
50393;SDS011;36308;46.312;25.288;2023-06-10T02:24:08;8.40;;;6.03;;
50393;SDS011;36308;46.312;25.288;2023-06-10T02:26:33;9.27;;;5.82;;
50393;SDS011;36308;46.312;25.288;2023-06-10T02:28:59;10.43;;;6.00;;
50393;SDS011;36308;46.312;25.288;2023-06-10T02:31:24;9.23;;;5.97;;
50393;SDS011;36308;46.312;25.288;2023-06-10T02:33:50;9.00;;;6.30;;
50393;SDS011;36308;46.312;25.288;2023-06-10T02:36:16;9.13;;;6.40;;
50393;SDS011;36308;46.312;25.288;2023-06-10T02:38:42;9.02;;;6.00;;
50393;SDS011;36308;46.312;25.288;2023-06-10T02:41:07;8.02;;;5.88;;
50393;SDS011;36308;46.312;25.288;2023-06-10T02:43:33;8.05;;;5.38;;
50393;SDS011;36308;46.312;25.288;2023-06-10T02:45:59;8.13;;;5.38;;
50393;SDS011;36308;46.312;25.288;2023-06-10T02:48:25;7.80;;;5.95;;
50393;SDS011;36308;46.312;25.288;2023-06-10T02:50:50;10.18;;;5.63;;
50393;SDS011;36308;46.312;25.288;2023-06-10T02:53:16;10.27;;;6.50;;
50393;SDS011;36308;46.312;25.288;2023-06-10T02:55:41;9.40;;;6.18;;
50393;SDS011;36308;46.312;25.288;2023-06-10T02:58:08;10.07;;;6.40;;
50393;SDS011;36308;46.312;25.288;2023-06-10T03:00:33;9.23;;;5.63;;
50393;SDS011;36308;46.312;25.288;2023-06-10T03:02:59;9.68;;;5.80;;
50393;SDS011;36308;46.312;25.288;2023-06-10T03:05:28;10.02;;;5.60;;
50393;SDS011;36308;46.312;25.288;2023-06-10T03:07:54;9.75;;;5.88;;
50393;SDS011;36308;46.312;25.288;2023-06-10T03:10:20;11.60;;;5.95;;
50393;SDS011;36308;46.312;25.288;2023-06-10T03:12:46;10.73;;;5.97;;
50393;SDS011;36308;46.312;25.288;2023-06-10T03:15:11;9.18;;;7.03;;
50393;SDS011;36308;46.312;25.288;2023-06-10T03:17:37;45.40;;;40.50;;
50393;SDS011;36308;46.312;25.288;2023-06-10T03:20:03;52.65;;;47.17;;
50393;SDS011;36308;46.312;25.288;2023-06-10T03:22:33;42.05;;;37.80;;
50393;SDS011;36308;46.312;25.288;2023-06-10T03:24:58;14.38;;;10.82;;
50393;SDS011;36308;46.312;25.288;2023-06-10T03:27:24;19.85;;;17.75;;
50393;SDS011;36308;46.312;25.288;2023-06-10T03:29:50;39.10;;;35.30;;
50393;SDS011;36308;46.312;25.288;2023-06-10T03:32:16;32.70;;;29.52;;
50393;SDS011;36308;46.312;25.288;2023-06-10T03:34:41;15.32;;;13.70;;
50393;SDS011;36308;46.312;25.288;2023-06-10T03:37:10;12.75;;;10.38;;
50393;SDS011;36308;46.312;25.288;2023-06-10T03:39:35;14.65;;;12.40;;
50393;SDS011;36308;46.312;25.288;2023-06-10T03:42:01;29.75;;;26.95;;
50393;SDS011;36308;46.312;25.288;2023-06-10T03:44:26;20.98;;;18.77;;
50393;SDS011;36308;46.312;25.288;2023-06-10T03:46:53;13.10;;;8.77;;
50393;SDS011;36308;46.312;25.288;2023-06-10T03:49:20;12.80;;;8.15;;
50393;SDS011;36308;46.312;25.288;2023-06-10T03:51:45;10.65;;;7.72;;
50393;SDS011;36308;46.312;25.288;2023-06-10T03:54:11;11.40;;;8.52;;
50393;SDS011;36308;46.312;25.288;2023-06-10T03:56:36;12.18;;;9.25;;
50393;SDS011;36308;46.312;25.288;2023-06-10T03:59:02;19.98;;;15.52;;
50393;SDS011;36308;46.312;25.288;2023-06-10T04:01:27;11.52;;;10.15;;
50393;SDS011;36308;46.312;25.288;2023-06-10T04:03:54;11.68;;;8.13;;
50393;SDS011;36308;46.312;25.288;2023-06-10T04:06:20;12.65;;;11.35;;
50393;SDS011;36308;46.312;25.288;2023-06-10T04:08:47;32.45;;;27.75;;
50393;SDS011;36308;46.312;25.288;2023-06-10T04:11:13;20.13;;;14.52;;
50393;SDS011;36308;46.312;25.288;2023-06-10T04:13:39;14.18;;;10.73;;
50393;SDS011;36308;46.312;25.288;2023-06-10T04:16:05;14.68;;;10.30;;
50393;SDS011;36308;46.312;25.288;2023-06-10T04:18:30;9.88;;;7.43;;
50393;SDS011;36308;46.312;25.288;2023-06-10T04:20:56;10.80;;;6.25;;
50393;SDS011;36308;46.312;25.288;2023-06-10T04:23:21;7.45;;;5.50;;
50393;SDS011;36308;46.312;25.288;2023-06-10T04:25:47;8.27;;;5.47;;
50393;SDS011;36308;46.312;25.288;2023-06-10T04:28:14;7.85;;;5.57;;
50393;SDS011;36308;46.312;25.288;2023-06-10T04:30:39;9.48;;;5.50;;
50393;SDS011;36308;46.312;25.288;2023-06-10T04:33:06;7.90;;;5.40;;
50393;SDS011;36308;46.312;25.288;2023-06-10T04:35:34;6.30;;;5.22;;
50393;SDS011;36308;46.312;25.288;2023-06-10T04:37:59;7.90;;;5.72;;
50393;SDS011;36308;46.312;25.288;2023-06-10T04:40:25;8.50;;;5.40;;
50393;SDS011;36308;46.312;25.288;2023-06-10T04:42:50;7.70;;;5.38;;
50393;SDS011;36308;46.312;25.288;2023-06-10T04:45:16;6.80;;;5.40;;
50393;SDS011;36308;46.312;25.288;2023-06-10T04:47:41;7.45;;;5.13;;
50393;SDS011;36308;46.312;25.288;2023-06-10T04:50:07;6.55;;;5.03;;
50393;SDS011;36308;46.312;25.288;2023-06-10T04:52:33;10.23;;;5.20;;
50393;SDS011;36308;46.312;25.288;2023-06-10T04:54:58;7.28;;;5.07;;
50393;SDS011;36308;46.312;25.288;2023-06-10T04:57:24;7.53;;;4.88;;
50393;SDS011;36308;46.312;25.288;2023-06-10T04:59:51;7.57;;;5.25;;
50393;SDS011;36308;46.312;25.288;2023-06-10T05:02:17;8.00;;;5.10;;
50393;SDS011;36308;46.312;25.288;2023-06-10T05:04:43;6.15;;;4.85;;
50393;SDS011;36308;46.312;25.288;2023-06-10T05:07:08;6.90;;;5.20;;
50393;SDS011;36308;46.312;25.288;2023-06-10T05:09:34;7.60;;;5.68;;
50393;SDS011;36308;46.312;25.288;2023-06-10T05:11:59;10.20;;;6.13;;
50393;SDS011;36308;46.312;25.288;2023-06-10T05:14:25;10.10;;;6.75;;
50393;SDS011;36308;46.312;25.288;2023-06-10T05:16:51;12.10;;;6.95;;
50393;SDS011;36308;46.312;25.288;2023-06-10T05:19:16;11.90;;;6.85;;
50393;SDS011;36308;46.312;25.288;2023-06-10T05:21:42;9.15;;;6.13;;
50393;SDS011;36308;46.312;25.288;2023-06-10T05:24:09;12.48;;;6.40;;
50393;SDS011;36308;46.312;25.288;2023-06-10T05:26:35;7.93;;;5.53;;
50393;SDS011;36308;46.312;25.288;2023-06-10T05:29:04;10.55;;;6.15;;
50393;SDS011;36308;46.312;25.288;2023-06-10T05:31:30;10.82;;;6.30;;
50393;SDS011;36308;46.312;25.288;2023-06-10T05:33:56;11.20;;;6.10;;
50393;SDS011;36308;46.312;25.288;2023-06-10T05:36:21;7.95;;;5.53;;
50393;SDS011;36308;46.312;25.288;2023-06-10T05:38:50;9.25;;;6.13;;
50393;SDS011;36308;46.312;25.288;2023-06-10T05:41:15;11.07;;;6.25;;
50393;SDS011;36308;46.312;25.288;2023-06-10T05:43:41;8.32;;;6.22;;
50393;SDS011;36308;46.312;25.288;2023-06-10T05:46:07;9.43;;;6.22;;
50393;SDS011;36308;46.312;25.288;2023-06-10T05:48:32;10.38;;;6.32;;
50393;SDS011;36308;46.312;25.288;2023-06-10T05:50:58;8.68;;;6.15;;
50393;SDS011;36308;46.312;25.288;2023-06-10T05:53:23;7.95;;;6.30;;
50393;SDS011;36308;46.312;25.288;2023-06-10T05:55:49;8.32;;;6.25;;
50393;SDS011;36308;46.312;25.288;2023-06-10T05:58:14;8.85;;;6.22;;
50393;SDS011;36308;46.312;25.288;2023-06-10T06:00:40;8.68;;;6.15;;
50393;SDS011;36308;46.312;25.288;2023-06-10T06:03:09;9.73;;;5.40;;
50393;SDS011;36308;46.312;25.288;2023-06-10T06:05:35;7.25;;;5.03;;
50393;SDS011;36308;46.312;25.288;2023-06-10T06:08:03;7.88;;;5.72;;
50393;SDS011;36308;46.312;25.288;2023-06-10T06:10:31;9.55;;;5.55;;
50393;SDS011;36308;46.312;25.288;2023-06-10T06:12:57;9.02;;;5.03;;
50393;SDS011;36308;46.312;25.288;2023-06-10T06:15:23;9.45;;;5.70;;
50393;SDS011;36308;46.312;25.288;2023-06-10T06:17:48;9.23;;;5.50;;
50393;SDS011;36308;46.312;25.288;2023-06-10T06:20:14;10.23;;;6.10;;
50393;SDS011;36308;46.312;25.288;2023-06-10T06:22:40;12.05;;;5.75;;
50393;SDS011;36308;46.312;25.288;2023-06-10T06:25:05;7.97;;;5.03;;
50393;SDS011;36308;46.312;25.288;2023-06-10T06:27:31;7.65;;;5.53;;
50393;SDS011;36308;46.312;25.288;2023-06-10T06:29:57;6.38;;;4.30;;
50393;SDS011;36308;46.312;25.288;2023-06-10T06:32:22;7.50;;;5.07;;
50393;SDS011;36308;46.312;25.288;2023-06-10T06:34:49;6.97;;;4.82;;
50393;SDS011;36308;46.312;25.288;2023-06-10T06:37:20;8.75;;;5.10;;
50393;SDS011;36308;46.312;25.288;2023-06-10T06:39:47;10.73;;;5.18;;
50393;SDS011;36308;46.312;25.288;2023-06-10T06:42:13;8.85;;;4.80;;
50393;SDS011;36308;46.312;25.288;2023-06-10T06:44:39;9.65;;;4.80;;
50393;SDS011;36308;46.312;25.288;2023-06-10T06:47:04;7.20;;;5.28;;
50393;SDS011;36308;46.312;25.288;2023-06-10T06:49:30;6.97;;;4.63;;
50393;SDS011;36308;46.312;25.288;2023-06-10T06:51:56;7.18;;;4.88;;
50393;SDS011;36308;46.312;25.288;2023-06-10T06:54:21;8.13;;;4.88;;
50393;SDS011;36308;46.312;25.288;2023-06-10T06:56:46;7.68;;;5.00;;
50393;SDS011;36308;46.312;25.288;2023-06-10T06:59:12;7.10;;;4.53;;
50393;SDS011;36308;46.312;25.288;2023-06-10T07:01:39;11.93;;;4.95;;
50393;SDS011;36308;46.312;25.288;2023-06-10T07:04:04;8.73;;;5.00;;
50393;SDS011;36308;46.312;25.288;2023-06-10T07:06:30;8.77;;;5.18;;
50393;SDS011;36308;46.312;25.288;2023-06-10T07:08:55;7.40;;;5.30;;
50393;SDS011;36308;46.312;25.288;2023-06-10T07:11:21;6.32;;;4.88;;
50393;SDS011;36308;46.312;25.288;2023-06-10T07:13:47;10.60;;;5.18;;
50393;SDS011;36308;46.312;25.288;2023-06-10T07:16:12;6.05;;;4.82;;
50393;SDS011;36308;46.312;25.288;2023-06-10T07:18:38;7.10;;;4.93;;
50393;SDS011;36308;46.312;25.288;2023-06-10T07:21:03;10.05;;;5.20;;
50393;SDS011;36308;46.312;25.288;2023-06-10T07:23:29;9.57;;;5.28;;
50393;SDS011;36308;46.312;25.288;2023-06-10T07:25:55;10.43;;;4.82;;
50393;SDS011;36308;46.312;25.288;2023-06-10T07:28:20;8.23;;;5.13;;
50393;SDS011;36308;46.312;25.288;2023-06-10T07:30:46;10.27;;;5.07;;
50393;SDS011;36308;46.312;25.288;2023-06-10T07:33:11;8.38;;;5.30;;
50393;SDS011;36308;46.312;25.288;2023-06-10T07:35:37;6.88;;;5.00;;
50393;SDS011;36308;46.312;25.288;2023-06-10T07:38:02;8.38;;;4.80;;
50393;SDS011;36308;46.312;25.288;2023-06-10T07:40:28;6.45;;;4.55;;
50393;SDS011;36308;46.312;25.288;2023-06-10T07:42:54;9.57;;;5.32;;
50393;SDS011;36308;46.312;25.288;2023-06-10T07:45:20;9.00;;;4.68;;
50393;SDS011;36308;46.312;25.288;2023-06-10T07:47:46;7.18;;;4.50;;
50393;SDS011;36308;46.312;25.288;2023-06-10T07:50:11;8.00;;;4.88;;
50393;SDS011;36308;46.312;25.288;2023-06-10T07:52:37;7.80;;;5.88;;
50393;SDS011;36308;46.312;25.288;2023-06-10T07:55:03;6.45;;;4.53;;
50393;SDS011;36308;46.312;25.288;2023-06-10T07:57:30;8.75;;;4.32;;
50393;SDS011;36308;46.312;25.288;2023-06-10T07:59:56;8.82;;;4.95;;
50393;SDS011;36308;46.312;25.288;2023-06-10T08:02:25;7.80;;;4.15;;
50393;SDS011;36308;46.312;25.288;2023-06-10T08:04:50;6.10;;;4.00;;
50393;SDS011;36308;46.312;25.288;2023-06-10T08:07:16;6.60;;;4.30;;
50393;SDS011;36308;46.312;25.288;2023-06-10T08:09:43;6.35;;;4.20;;
50393;SDS011;36308;46.312;25.288;2023-06-10T08:12:08;5.20;;;4.10;;
50393;SDS011;36308;46.312;25.288;2023-06-10T08:14:34;6.85;;;3.95;;
50393;SDS011;36308;46.312;25.288;2023-06-10T08:16:59;6.68;;;4.00;;
50393;SDS011;36308;46.312;25.288;2023-06-10T08:19:25;5.38;;;4.10;;
50393;SDS011;36308;46.312;25.288;2023-06-10T08:21:50;7.65;;;4.47;;
50393;SDS011;36308;46.312;25.288;2023-06-10T08:24:16;6.38;;;4.00;;
50393;SDS011;36308;46.312;25.288;2023-06-10T08:26:43;7.43;;;3.75;;
50393;SDS011;36308;46.312;25.288;2023-06-10T08:29:11;6.45;;;3.33;;
50393;SDS011;36308;46.312;25.288;2023-06-10T08:31:37;6.63;;;3.85;;
50393;SDS011;36308;46.312;25.288;2023-06-10T08:34:02;7.53;;;3.70;;
50393;SDS011;36308;46.312;25.288;2023-06-10T08:36:28;6.90;;;3.33;;
50393;SDS011;36308;46.312;25.288;2023-06-10T08:38:54;8.95;;;4.43;;
50393;SDS011;36308;46.312;25.288;2023-06-10T08:41:19;5.28;;;3.55;;
50393;SDS011;36308;46.312;25.288;2023-06-10T08:43:52;6.55;;;3.83;;
50393;SDS011;36308;46.312;25.288;2023-06-10T08:46:24;5.35;;;3.65;;
50393;SDS011;36308;46.312;25.288;2023-06-10T08:48:51;6.15;;;3.67;;
50393;SDS011;36308;46.312;25.288;2023-06-10T08:51:20;7.20;;;3.83;;
50393;SDS011;36308;46.312;25.288;2023-06-10T08:54:11;4.78;;;3.22;;
50393;SDS011;36308;46.312;25.288;2023-06-10T08:56:39;6.38;;;3.95;;
50393;SDS011;36308;46.312;25.288;2023-06-10T08:59:05;4.63;;;3.50;;
50393;SDS011;36308;46.312;25.288;2023-06-10T09:01:31;6.25;;;3.50;;
50393;SDS011;36308;46.312;25.288;2023-06-10T09:03:58;12.52;;;6.47;;
50393;SDS011;36308;46.312;25.288;2023-06-10T09:06:24;10.48;;;6.53;;
50393;SDS011;36308;46.312;25.288;2023-06-10T09:08:50;8.02;;;6.25;;
50393;SDS011;36308;46.312;25.288;2023-06-10T09:11:16;9.45;;;5.65;;
50393;SDS011;36308;46.312;25.288;2023-06-10T09:13:41;11.50;;;7.13;;
50393;SDS011;36308;46.312;25.288;2023-06-10T09:16:07;11.50;;;6.60;;
50393;SDS011;36308;46.312;25.288;2023-06-10T09:18:33;9.63;;;7.10;;
50393;SDS011;36308;46.312;25.288;2023-06-10T09:20:59;11.43;;;8.07;;
50393;SDS011;36308;46.312;25.288;2023-06-10T09:23:25;8.68;;;6.00;;
50393;SDS011;36308;46.312;25.288;2023-06-10T09:25:57;10.23;;;6.72;;
50393;SDS011;36308;46.312;25.288;2023-06-10T09:28:23;12.57;;;7.28;;
50393;SDS011;36308;46.312;25.288;2023-06-10T09:30:49;9.45;;;6.28;;
50393;SDS011;36308;46.312;25.288;2023-06-10T09:33:15;9.32;;;6.72;;
50393;SDS011;36308;46.312;25.288;2023-06-10T09:35:48;9.27;;;6.25;;
50393;SDS011;36308;46.312;25.288;2023-06-10T09:38:19;8.45;;;6.70;;
50393;SDS011;36308;46.312;25.288;2023-06-10T09:40:49;9.52;;;6.68;;
50393;SDS011;36308;46.312;25.288;2023-06-10T09:43:19;10.27;;;6.35;;
50393;SDS011;36308;46.312;25.288;2023-06-10T09:45:47;11.40;;;6.65;;
50393;SDS011;36308;46.312;25.288;2023-06-10T09:48:14;9.20;;;6.53;;
50393;SDS011;36308;46.312;25.288;2023-06-10T09:50:43;12.30;;;7.05;;
50393;SDS011;36308;46.312;25.288;2023-06-10T09:53:09;12.82;;;7.38;;
50393;SDS011;36308;46.312;25.288;2023-06-10T09:55:39;11.65;;;7.07;;
50393;SDS011;36308;46.312;25.288;2023-06-10T09:58:05;11.38;;;6.57;;
50393;SDS011;36308;46.312;25.288;2023-06-10T10:00:32;8.80;;;6.60;;
50393;SDS011;36308;46.312;25.288;2023-06-10T10:02:58;10.55;;;6.93;;
50393;SDS011;36308;46.312;25.288;2023-06-10T10:05:24;12.57;;;6.90;;
50393;SDS011;36308;46.312;25.288;2023-06-10T10:07:49;10.55;;;6.53;;
50393;SDS011;36308;46.312;25.288;2023-06-10T10:10:17;9.38;;;6.28;;
50393;SDS011;36308;46.312;25.288;2023-06-10T10:12:43;14.05;;;8.63;;
50393;SDS011;36308;46.312;25.288;2023-06-10T10:15:12;9.48;;;8.07;;
50393;SDS011;36308;46.312;25.288;2023-06-10T10:20:25;13.00;;;7.90;;
50393;SDS011;36308;46.312;25.288;2023-06-10T10:22:56;10.73;;;8.57;;
50393;SDS011;36308;46.312;25.288;2023-06-10T10:25:27;15.55;;;8.68;;
50393;SDS011;36308;46.312;25.288;2023-06-10T10:27:56;13.63;;;8.93;;
50393;SDS011;36308;46.312;25.288;2023-06-10T10:30:34;12.70;;;9.43;;
50393;SDS011;36308;46.312;25.288;2023-06-10T10:33:06;15.18;;;8.63;;
50393;SDS011;36308;46.312;25.288;2023-06-10T10:35:37;10.48;;;9.18;;
50393;SDS011;36308;46.312;25.288;2023-06-10T10:38:03;14.38;;;9.13;;
50393;SDS011;36308;46.312;25.288;2023-06-10T10:40:30;11.60;;;8.75;;
50393;SDS011;36308;46.312;25.288;2023-06-10T10:42:57;12.95;;;9.00;;
50393;SDS011;36308;46.312;25.288;2023-06-10T10:45:24;11.93;;;9.07;;
50393;SDS011;36308;46.312;25.288;2023-06-10T10:47:53;13.98;;;8.88;;
50393;SDS011;36308;46.312;25.288;2023-06-10T10:50:23;11.82;;;9.10;;
50393;SDS011;36308;46.312;25.288;2023-06-10T10:52:56;11.25;;;8.52;;
50393;SDS011;36308;46.312;25.288;2023-06-10T10:55:24;10.90;;;7.55;;
50393;SDS011;36308;46.312;25.288;2023-06-10T10:58:07;10.02;;;7.38;;
50393;SDS011;36308;46.312;25.288;2023-06-10T11:00:37;11.77;;;6.90;;
50393;SDS011;36308;46.312;25.288;2023-06-10T11:03:08;13.23;;;7.20;;
50393;SDS011;36308;46.312;25.288;2023-06-10T11:08:59;11.57;;;6.40;;
50393;SDS011;36308;46.312;25.288;2023-06-10T11:11:00;25.75;;;9.48;;
50393;SDS011;36308;46.312;25.288;2023-06-10T11:13:26;22.05;;;9.50;;
50393;SDS011;36308;46.312;25.288;2023-06-10T11:15:52;24.00;;;9.80;;
50393;SDS011;36308;46.312;25.288;2023-06-10T11:26:46;17.10;;;9.23;;
50393;SDS011;36308;46.312;25.288;2023-06-10T11:29:12;12.90;;;9.00;;
50393;SDS011;36308;46.312;25.288;2023-06-10T11:31:58;14.02;;;9.00;;
50393;SDS011;36308;46.312;25.288;2023-06-10T11:34:24;15.00;;;10.73;;
50393;SDS011;36308;46.312;25.288;2023-06-10T11:36:51;12.70;;;9.63;;
50393;SDS011;36308;46.312;25.288;2023-06-10T11:39:19;14.75;;;8.95;;
50393;SDS011;36308;46.312;25.288;2023-06-10T11:41:45;12.18;;;8.48;;
50393;SDS011;36308;46.312;25.288;2023-06-10T11:44:12;14.68;;;9.60;;
50393;SDS011;36308;46.312;25.288;2023-06-10T11:46:39;14.38;;;9.32;;
50393;SDS011;36308;46.312;25.288;2023-06-10T11:49:07;10.10;;;8.25;;
50393;SDS011;36308;46.312;25.288;2023-06-10T11:51:39;11.75;;;9.10;;
50393;SDS011;36308;46.312;25.288;2023-06-10T11:54:13;13.90;;;8.50;;
50393;SDS011;36308;46.312;25.288;2023-06-10T11:56:39;12.23;;;8.43;;
50393;SDS011;36308;46.312;25.288;2023-06-10T11:59:05;14.20;;;8.32;;
50393;SDS011;36308;46.312;25.288;2023-06-10T12:01:35;14.45;;;8.30;;
50393;SDS011;36308;46.312;25.288;2023-06-10T12:06:28;12.15;;;8.93;;
50393;SDS011;36308;46.312;25.288;2023-06-10T12:09:03;13.68;;;9.52;;
50393;SDS011;36308;46.312;25.288;2023-06-10T12:11:29;12.52;;;9.15;;
50393;SDS011;36308;46.312;25.288;2023-06-10T12:13:54;15.20;;;9.60;;
50393;SDS011;36308;46.312;25.288;2023-06-10T12:16:20;17.02;;;10.25;;
50393;SDS011;36308;46.312;25.288;2023-06-10T12:18:46;15.55;;;9.70;;
50393;SDS011;36308;46.312;25.288;2023-06-10T12:21:19;13.88;;;9.48;;
50393;SDS011;36308;46.312;25.288;2023-06-10T12:29:15;15.13;;;8.57;;
50393;SDS011;36308;46.312;25.288;2023-06-10T12:31:59;12.68;;;8.57;;
50393;SDS011;36308;46.312;25.288;2023-06-10T12:37:03;15.25;;;9.65;;
50393;SDS011;36308;46.312;25.288;2023-06-10T12:39:31;11.85;;;9.15;;
50393;SDS011;36308;46.312;25.288;2023-06-10T12:41:58;10.85;;;9.23;;
50393;SDS011;36308;46.312;25.288;2023-06-10T12:44:31;16.75;;;9.93;;
50393;SDS011;36308;46.312;25.288;2023-06-10T12:46:57;13.95;;;9.68;;
50393;SDS011;36308;46.312;25.288;2023-06-10T12:49:23;16.38;;;12.30;;
50393;SDS011;36308;46.312;25.288;2023-06-10T12:51:50;29.25;;;23.67;;
50393;SDS011;36308;46.312;25.288;2023-06-10T12:54:15;20.83;;;14.88;;
50393;SDS011;36308;46.312;25.288;2023-06-10T12:56:40;15.70;;;12.88;;
50393;SDS011;36308;46.312;25.288;2023-06-10T12:59:06;14.27;;;10.65;;
50393;SDS011;36308;46.312;25.288;2023-06-10T13:01:31;12.05;;;9.55;;
50393;SDS011;36308;46.312;25.288;2023-06-10T13:03:58;13.23;;;10.40;;
50393;SDS011;36308;46.312;25.288;2023-06-10T13:06:24;13.80;;;10.05;;
50393;SDS011;36308;46.312;25.288;2023-06-10T13:08:50;15.35;;;10.43;;
50393;SDS011;36308;46.312;25.288;2023-06-10T13:11:16;15.35;;;10.73;;
50393;SDS011;36308;46.312;25.288;2023-06-10T13:13:41;14.75;;;11.27;;
50393;SDS011;36308;46.312;25.288;2023-06-10T13:16:07;17.90;;;12.15;;
50393;SDS011;36308;46.312;25.288;2023-06-10T13:18:33;15.10;;;11.50;;
50393;SDS011;36308;46.312;25.288;2023-06-10T13:21:05;17.75;;;11.80;;
50393;SDS011;36308;46.312;25.288;2023-06-10T13:23:30;15.00;;;11.38;;
50393;SDS011;36308;46.312;25.288;2023-06-10T13:25:56;16.20;;;11.25;;
50393;SDS011;36308;46.312;25.288;2023-06-10T13:28:22;18.73;;;11.25;;
50393;SDS011;36308;46.312;25.288;2023-06-10T13:30:47;13.23;;;10.27;;
50393;SDS011;36308;46.312;25.288;2023-06-10T13:33:13;14.15;;;10.07;;
50393;SDS011;36308;46.312;25.288;2023-06-10T13:35:39;12.00;;;9.27;;
50393;SDS011;36308;46.312;25.288;2023-06-10T13:38:04;11.40;;;8.68;;
50393;SDS011;36308;46.312;25.288;2023-06-10T13:40:32;12.52;;;9.30;;
50393;SDS011;36308;46.312;25.288;2023-06-10T13:42:57;13.70;;;8.85;;
50393;SDS011;36308;46.312;25.288;2023-06-10T13:45:23;14.57;;;9.02;;
50393;SDS011;36308;46.312;25.288;2023-06-10T13:47:49;12.10;;;9.13;;
50393;SDS011;36308;46.312;25.288;2023-06-10T13:50:15;13.52;;;10.75;;
50393;SDS011;36308;46.312;25.288;2023-06-10T13:52:40;16.73;;;9.68;;
50393;SDS011;36308;46.312;25.288;2023-06-10T13:55:06;12.52;;;9.60;;
50393;SDS011;36308;46.312;25.288;2023-06-10T13:57:32;10.95;;;9.15;;
50393;SDS011;36308;46.312;25.288;2023-06-10T13:59:57;12.93;;;10.02;;
50393;SDS011;36308;46.312;25.288;2023-06-10T14:02:23;13.80;;;9.52;;
50393;SDS011;36308;46.312;25.288;2023-06-10T14:04:48;14.18;;;10.43;;
50393;SDS011;36308;46.312;25.288;2023-06-10T14:07:14;14.10;;;11.10;;
50393;SDS011;36308;46.312;25.288;2023-06-10T14:09:40;14.27;;;10.35;;
50393;SDS011;36308;46.312;25.288;2023-06-10T14:12:06;16.02;;;10.98;;
50393;SDS011;36308;46.312;25.288;2023-06-10T14:14:32;12.40;;;9.77;;
50393;SDS011;36308;46.312;25.288;2023-06-10T14:16:58;12.00;;;10.10;;
50393;SDS011;36308;46.312;25.288;2023-06-10T14:19:24;17.13;;;9.48;;
50393;SDS011;36308;46.312;25.288;2023-06-10T14:21:50;11.40;;;9.20;;
50393;SDS011;36308;46.312;25.288;2023-06-10T14:24:15;10.88;;;9.30;;
50393;SDS011;36308;46.312;25.288;2023-06-10T14:26:41;14.05;;;9.27;;
50393;SDS011;36308;46.312;25.288;2023-06-10T14:29:06;11.55;;;9.07;;
50393;SDS011;36308;46.312;25.288;2023-06-10T14:31:32;12.57;;;9.02;;
50393;SDS011;36308;46.312;25.288;2023-06-10T14:33:57;12.98;;;9.38;;
50393;SDS011;36308;46.312;25.288;2023-06-10T14:36:23;9.80;;;8.38;;
50393;SDS011;36308;46.312;25.288;2023-06-10T14:38:49;12.70;;;8.30;;
50393;SDS011;36308;46.312;25.288;2023-06-10T14:41:15;12.30;;;8.93;;
50393;SDS011;36308;46.312;25.288;2023-06-10T14:43:40;13.13;;;8.75;;
50393;SDS011;36308;46.312;25.288;2023-06-10T14:46:06;15.30;;;8.80;;
50393;SDS011;36308;46.312;25.288;2023-06-10T14:48:31;10.27;;;8.38;;
50393;SDS011;36308;46.312;25.288;2023-06-10T14:50:57;11.18;;;8.05;;
50393;SDS011;36308;46.312;25.288;2023-06-10T14:53:22;10.30;;;7.90;;
50393;SDS011;36308;46.312;25.288;2023-06-10T14:55:48;10.60;;;8.20;;